Sun Universe — 3FOQ4 — position and weather

sailwx.info

Track history (hours):
 
Tides and Currents Weather Stations Pressure Air Temp Water Temp Dewpoint Dewpoint Depression Visibility Wind Speed Wind Dir Waves Ship Positions

Sun Universe

Last reported at 2014-Jul-20 18:07 UTC. Time now 2014-Jul-24 04:26 UTC.
Position N 33°38' E 129°15'.

Length 116 m; draft 8.8 m.

Type: Cargo ship. MMSI: 371647000.

Date/timePositionNaut miles runAvg speedWind from/ knotsBaromVisibWave heightAir tempDewpointWater temp
2014-Jul-20 18:07N 33°38' E 129°15'813.2
2014-Jul-20 17:31N 33°44' E 129°21'  
2014-Jul-15 17:18N 34°03' E 130°47'  
2014-Jul-11 14:33N 25°28' E 120°06'1513.8
2014-Jul-11 13:29N 25°18' E 119°54'1313.7
2014-Jul-11 12:33N 25°10' E 119°44'2015.1
2014-Jul-11 11:16N 24°56' E 119°28'1216.6
2014-Jul-11 10:33N 24°48' E 119°19'1616.5
2014-Jul-11 09:33N 24°37' E 119°05'1615.9
2014-Jul-11 08:33N 24°26' E 118°52'1615.4
2014-Jul-11 07:30N 24°16' E 118°38'1814.1
2014-Jul-11 06:15N 24°04' E 118°24'913.3
2014-Jul-11 05:33N 23°58' E 118°16'1312.9
2014-Jul-11 04:33N 23°50' E 118°06'1313.3
2014-Jul-11 03:33N 23°41' E 117°55'1414.3
2014-Jul-11 02:33N 23°31' E 117°44'3415.6
2014-Jul-11 00:23N 23°09' E 117°16'1315.6
2014-Jul-10 23:32N 23°01' E 117°04'1915.3
2014-Jul-10 22:17N 22°50' E 116°47'  
Track history (hours):
 
Tides and Currents Weather Stations Pressure Air Temp Water Temp Dewpoint Dewpoint Depression Visibility Wind Speed Wind Dir Waves Ship Positions

Sun Universe

Last reported at 2014-Jul-20 18:07 UTC. Time now 2014-Jul-24 04:26 UTC.
Position N 33°38' E 129°15'.

Length 116 m; draft 8.8 m.

Type: Cargo ship. MMSI: 371647000.

Date/timePositionNaut miles runAvg speedWind from/ knotsBaromVisibWave heightAir tempDewpointWater temp
2014-Jul-20 18:07N 33°38' E 129°15'813.2
2014-Jul-20 17:31N 33°44' E 129°21'  
2014-Jul-15 17:18N 34°03' E 130°47'  
2014-Jul-11 14:33N 25°28' E 120°06'1513.8
2014-Jul-11 13:29N 25°18' E 119°54'1313.7
2014-Jul-11 12:33N 25°10' E 119°44'2015.1
2014-Jul-11 11:16N 24°56' E 119°28'1216.6
2014-Jul-11 10:33N 24°48' E 119°19'1616.5
2014-Jul-11 09:33N 24°37' E 119°05'1615.9
2014-Jul-11 08:33N 24°26' E 118°52'1615.4
2014-Jul-11 07:30N 24°16' E 118°38'1814.1
2014-Jul-11 06:15N 24°04' E 118°24'913.3
2014-Jul-11 05:33N 23°58' E 118°16'1312.9
2014-Jul-11 04:33N 23°50' E 118°06'1313.3
2014-Jul-11 03:33N 23°41' E 117°55'1414.3
2014-Jul-11 02:33N 23°31' E 117°44'3415.6
2014-Jul-11 00:23N 23°09' E 117°16'1315.6
2014-Jul-10 23:32N 23°01' E 117°04'1915.3
2014-Jul-10 22:17N 22°50' E 116°47'  

Dump ship's entire track history